Time;durP1;ratioP1;P1;durP2;ratioP2;P2;SDS_P1;SDS_P2;PMS_P1;PMS_P2;Temp;Humidity;BMP_temperature;BMP_pressure;BME280_temperature;BME280_humidity;BME280_pressure;Samples;Min_cycle;Max_cycle;Signal;HPM_P1;HPM_P2
2023/02/28 00:01:10;;;;;;;2.17;1.93;;;;;;;1.64;72.19;102460.00;5055994;28;20210;-79
2023/02/28 00:03:36;;;;;;;3.67;2.07;;;;;;;1.69;72.60;102463.69;5056178;28;20583;-80
2023/02/28 00:06:03;;;;;;;1.60;1.50;;;;;;;1.65;72.92;102454.06;5056190;28;20263;-79
2023/02/28 00:08:30;;;;;;;2.33;1.80;;;;;;;1.56;73.52;102444.16;5054532;28;20229;-80
2023/02/28 00:10:56;;;;;;;1.80;1.70;;;;;;;1.54;74.41;102429.47;5055446;28;20248;-79
2023/02/28 00:13:24;;;;;;;2.20;2.00;;;;;;;1.47;75.60;102407.69;5055680;28;20277;-80
2023/02/28 00:15:59;;;;;;;1.80;1.70;;;;;;;1.51;75.26;102389.03;5055059;28;20867;-80
2023/02/28 00:18:26;;;;;;;2.20;1.83;;;;;;;1.53;74.97;102368.53;5055398;28;20206;-79
2023/02/28 00:20:52;;;;;;;2.33;2.13;;;;;;;1.52;75.61;102366.75;5055154;28;20202;-79
2023/02/28 00:23:18;;;;;;;2.07;1.90;;;;;;;1.49;75.07;102361.47;5055384;28;20634;-79
2023/02/28 00:25:45;;;;;;;1.97;1.87;;;;;;;1.48;75.66;102355.41;5055494;28;20282;-80
2023/02/28 00:28:11;;;;;;;3.07;2.57;;;;;;;1.48;75.44;102354.53;5055010;28;20225;-80
2023/02/28 00:30:39;;;;;;;2.70;2.50;;;;;;;1.37;74.40;102356.59;5055988;28;20275;-80
2023/02/28 00:33:06;;;;;;;3.83;2.53;;;;;;;1.38;74.91;102366.06;5056370;28;20260;-79
2023/02/28 00:35:32;;;;;;;2.67;2.30;;;;;;;1.37;74.72;102372.91;5055927;28;20202;-80
2023/02/28 00:37:58;;;;;;;2.50;2.30;;;;;;;1.37;74.13;102369.47;5055886;28;20201;-81
2023/02/28 00:40:25;;;;;;;3.90;2.80;;;;;;;1.33;74.20;102373.56;5054951;28;20225;-79
2023/02/28 00:42:51;;;;;;;2.20;2.00;;;;;;;1.32;73.77;102376.06;5056211;28;20205;-79
2023/02/28 00:45:18;;;;;;;3.67;2.70;;;;;;;1.26;74.11;102380.88;5055649;28;20209;-80
2023/02/28 00:47:46;;;;;;;2.60;2.40;;;;;;;1.18;74.48;102381.38;5055592;28;20231;-80
2023/02/28 00:50:13;;;;;;;5.37;2.67;;;;;;;1.15;74.38;102381.22;5055311;28;20231;-79
2023/02/28 00:52:39;;;;;;;2.33;2.10;;;;;;;1.14;74.59;102386.28;5055726;28;20255;-81
2023/02/28 00:55:06;;;;;;;3.07;2.40;;;;;;;1.08;73.70;102391.13;5056030;28;20217;-80
2023/02/28 00:57:32;;;;;;;2.77;1.93;;;;;;;1.07;74.23;102391.91;5056644;28;20232;-80
2023/02/28 00:59:58;;;;;;;1.80;1.70;;;;;;;1.04;73.09;102405.50;5056406;28;20272;-79
2023/02/28 01:02:25;;;;;;;2.40;2.20;;;;;;;1.01;73.35;102418.19;5058054;28;20286;-80
2023/02/28 01:04:52;;;;;;;3.30;2.17;;;;;;;1.00;72.61;102424.16;5056844;28;20696;-79
2023/02/28 01:07:19;;;;;;;1.50;1.40;;;;;;;1.01;73.02;102435.31;5056593;28;20649;-80
2023/02/28 01:09:45;;;;;;;2.80;2.07;;;;;;;0.96;72.62;102445.38;5055149;28;20766;-81
2023/02/28 01:12:11;;;;;;;2.23;1.57;;;;;;;0.92;72.12;102456.31;5055546;28;20202;-81
2023/02/28 01:14:38;;;;;;;2.00;1.80;;;;;;;0.81;71.96;102476.28;5055229;28;20217;-80
2023/02/28 01:17:04;;;;;;;1.70;1.60;;;;;;;0.84;72.22;102486.75;5054921;28;20279;-80
2023/02/28 01:19:31;;;;;;;2.63;2.43;;;;;;;0.85;72.23;102480.78;5057174;28;20719;-79
2023/02/28 01:22:01;;;;;;;2.47;2.27;;;;;;;0.84;72.18;102473.00;5056738;28;20205;-80
2023/02/28 01:24:27;;;;;;;2.97;2.77;;;;;;;0.83;73.50;102477.25;5057499;28;20798;-79
2023/02/28 01:26:54;;;;;;;3.00;2.70;;;;;;;0.77;74.37;102464.06;5057802;28;20210;-80
2023/02/28 01:29:20;;;;;;;3.40;3.10;;;;;;;0.77;74.81;102448.63;5058725;28;20276;-80
2023/02/28 01:31:46;;;;;;;3.33;3.03;;;;;;;0.70;73.47;102444.88;5058199;28;20206;-80
2023/02/28 01:34:13;;;;;;;3.63;3.23;;;;;;;0.72;73.51;102438.13;5058919;28;20227;-80
2023/02/28 01:36:39;;;;;;;3.20;2.93;;;;;;;0.74;74.38;102433.94;5058183;28;20300;-79
2023/02/28 01:39:07;;;;;;;3.73;2.97;;;;;;;0.72;74.27;102425.28;5057978;28;20264;-80
2023/02/28 01:41:35;;;;;;;3.77;3.47;;;;;;;0.62;74.99;102409.28;5057559;28;20247;-79
2023/02/28 01:44:05;;;;;;;4.13;3.30;;;;;;;0.63;74.25;102391.34;5058084;28;20201;-80
2023/02/28 01:46:33;;;;;;;3.50;2.80;;;;;;;0.67;74.58;102379.56;5058222;28;20207;-80
2023/02/28 01:49:06;;;;;;;3.20;3.00;;;;;;;0.71;74.27;102378.91;5057896;28;20226;-79
2023/02/28 01:51:38;;;;;;;3.30;3.00;;;;;;;0.71;74.35;102382.38;5057324;28;20637;-79
2023/02/28 01:54:13;;;;;;;3.20;2.90;;;;;;;0.71;73.84;102387.50;5056680;28;20202;-79
2023/02/28 01:56:44;;;;;;;3.03;2.73;;;;;;;0.67;73.84;102377.88;5056845;28;20686;-81
2023/02/28 01:59:14;;;;;;;3.57;3.27;;;;;;;0.40;74.04;102387.56;5058626;28;20278;-80
2023/02/28 02:01:41;;;;;;;3.90;3.17;;;;;;;0.38;74.66;102389.19;5057990;28;20206;-80
2023/02/28 02:04:07;;;;;;;3.57;3.27;;;;;;;0.45;75.14;102382.69;5057566;28;20207;-81
2023/02/28 02:06:37;;;;;;;3.53;3.00;;;;;;;0.45;74.72;102368.13;5057862;28;20207;-79
2023/02/28 02:09:04;;;;;;;6.13;3.27;;;;;;;0.44;74.48;102357.78;5057874;28;20765;-81
2023/02/28 02:11:33;;;;;;;3.43;3.03;;;;;;;0.46;74.70;102364.78;5057783;28;20232;-81
2023/02/28 02:14:13;;;;;;;3.90;3.23;;;;;;;0.44;74.20;102362.91;5058095;28;20220;-80
2023/02/28 02:16:53;;;;;;;3.80;3.07;;;;;;;0.42;73.29;102367.09;5056361;28;20248;-80
2023/02/28 02:19:42;;;;;;;3.30;3.00;;;;;;;0.29;72.12;102392.13;5056767;28;20268;-80
2023/02/28 02:22:37;;;;;;;3.63;2.73;;;;;;;0.37;72.90;102406.25;5057161;28;20212;-80
2023/02/28 02:25:21;;;;;;;2.83;2.53;;;;;;;0.31;71.94;102423.03;5055932;28;20214;-81
2023/02/28 02:28:21;;;;;;;3.20;2.67;;;;;;;0.29;72.89;102430.66;5057087;28;20229;-81
2023/02/28 02:31:15;;;;;;;3.67;2.40;;;;;;;0.26;73.08;102422.78;5055821;28;20206;-79
2023/02/28 02:34:06;;;;;;;2.80;2.40;;;;;;;0.17;72.46;102429.97;5058869;28;20236;-77
2023/02/28 02:36:40;;;;;;;2.20;2.00;;;;;;;0.20;72.26;102430.16;5057925;28;20207;-79
2023/02/28 02:39:13;;;;;;;3.47;2.57;;;;;;;0.15;71.25;102427.31;5055762;28;20588;-81
2023/02/28 02:41:47;;;;;;;3.90;2.40;;;;;;;0.18;70.81;102445.47;5055953;28;20206;-81
2023/02/28 02:44:21;;;;;;;2.90;2.60;;;;;;;0.21;70.99;102464.41;5056153;28;20206;-80
2023/02/28 02:46:51;;;;;;;3.50;3.20;;;;;;;0.21;72.22;102464.41;5056850;28;20209;-79
2023/02/28 02:49:22;;;;;;;3.90;2.60;;;;;;;0.17;72.85;102456.53;5057004;28;20704;-79
2023/02/28 02:51:50;;;;;;;3.13;2.70;;;;;;;0.23;72.98;102435.44;5056300;28;20684;-79
2023/02/28 02:54:20;;;;;;;3.37;3.07;;;;;;;0.19;72.50;102442.09;5057370;28;20746;-79
2023/02/28 02:56:48;;;;;;;3.80;3.17;;;;;;;0.07;72.95;102435.41;5057937;28;20212;-80
2023/02/28 02:59:20;;;;;;;3.23;2.93;;;;;;;0.12;72.57;102437.44;5056200;28;20771;-81
2023/02/28 03:01:51;;;;;;;4.00;3.50;;;;;;;0.12;73.49;102434.84;5055457;28;20236;-82
2023/02/28 03:04:21;;;;;;;3.97;3.67;;;;;;;-0.03;74.11;102434.00;5055642;28;20206;-80
2023/02/28 03:06:48;;;;;;;3.97;3.67;;;;;;;-0.36;74.06;102425.25;5052663;28;20812;-80
2023/02/28 03:09:14;;;;;;;4.13;3.83;;;;;;;-0.54;75.25;102402.84;5053761;28;20225;-80
2023/02/28 03:11:42;;;;;;;6.73;4.50;;;;;;;-0.58;76.46;102379.53;5055448;28;20282;-80
2023/02/28 03:14:25;;;;;;;4.80;4.40;;;;;;;-0.51;76.85;102348.31;5060400;28;20201;-79
2023/02/28 03:17:06;;;;;;;6.80;3.97;;;;;;;-0.43;77.13;102319.72;5060373;28;20209;-80
2023/02/28 03:19:44;;;;;;;3.40;2.97;;;;;;;-0.38;76.83;102296.88;5061125;28;20223;-81
2023/02/28 03:22:20;;;;;;;4.33;3.57;;;;;;;-0.28;76.44;102291.47;5061021;28;20259;-80
2023/02/28 03:24:55;;;;;;;3.43;3.13;;;;;;;-0.19;76.66;102287.66;5061027;28;20614;-80
2023/02/28 03:27:28;;;;;;;3.43;3.07;;;;;;;-0.16;76.87;102290.38;5061266;28;20263;-80
2023/02/28 03:30:01;;;;;;;3.60;3.30;;;;;;;-0.12;76.69;102284.59;5061126;28;20775;-80
2023/02/28 03:32:32;;;;;;;4.20;3.53;;;;;;;-0.15;77.62;102269.91;5061406;28;20277;-79
2023/02/28 03:35:06;;;;;;;5.03;4.53;;;;;;;-0.24;76.54;102264.28;5061496;28;20211;-80
2023/02/28 03:37:36;;;;;;;4.20;3.90;;;;;;;-0.23;76.61;102261.81;5061115;28;20627;-80
2023/02/28 03:40:08;;;;;;;4.53;4.13;;;;;;;-0.18;77.13;102269.75;5061557;28;20333;-79
2023/02/28 03:42:39;;;;;;;5.07;4.33;;;;;;;-0.13;77.52;102258.06;5061302;28;20229;-81
2023/02/28 03:45:11;;;;;;;4.70;4.30;;;;;;;-0.10;77.85;102247.97;5061419;28;20279;-80
2023/02/28 03:47:43;;;;;;;4.60;4.20;;;;;;;-0.06;77.56;102246.41;5061264;28;20682;-81
2023/02/28 03:50:17;;;;;;;6.47;5.23;;;;;;;-0.22;78.78;102234.44;5061734;28;20230;-80
2023/02/28 03:52:49;;;;;;;4.73;4.30;;;;;;;-0.31;79.92;102211.75;5061933;28;20267;-80
2023/02/28 03:55:17;;;;;;;4.97;4.50;;;;;;;-0.24;79.35;102190.78;5061554;28;20682;-81
2023/02/28 03:57:56;;;;;;;5.00;4.60;;;;;;;-0.29;80.07;102183.63;5061659;28;20264;-80
2023/02/28 04:00:32;;;;;;;5.10;4.70;;;;;;;-0.30;80.15;102164.75;5061430;28;20667;-81
2023/02/28 04:02:59;;;;;;;5.10;4.57;;;;;;;-0.35;80.56;102148.25;5061308;28;20310;-80
2023/02/28 04:05:28;;;;;;;5.70;5.07;;;;;;;-0.35;80.66;102144.81;5061239;28;20206;-80
2023/02/28 04:07:54;;;;;;;4.47;4.07;;;;;;;-0.38;80.84;102142.06;5061863;28;20207;-80
2023/02/28 04:10:21;;;;;;;5.03;4.63;;;;;;;-0.49;81.16;102141.50;5062009;28;20227;-80
2023/02/28 04:12:47;;;;;;;4.87;4.40;;;;;;;-0.41;80.65;102135.09;5061761;28;20652;-80
2023/02/28 04:15:14;;;;;;;4.90;4.50;;;;;;;-0.37;80.79;102134.47;5060942;28;20251;-79
2023/02/28 04:17:40;;;;;;;4.00;3.50;;;;;;;-0.32;80.02;102140.69;5061990;28;20712;-81
2023/02/28 04:20:10;;;;;;;4.03;3.70;;;;;;;-0.29;79.43;102153.72;5061214;28;20708;-79
2023/02/28 04:22:37;;;;;;;4.93;3.30;;;;;;;-0.23;78.50;102174.56;5060640;28;20221;-80
2023/02/28 04:25:06;;;;;;;6.20;3.63;;;;;;;-0.19;77.44;102200.41;5057673;28;20213;-80
2023/02/28 04:27:32;;;;;;;3.63;3.33;;;;;;;-0.20;77.48;102220.00;5057981;28;20219;-79
2023/02/28 04:29:58;;;;;;;4.47;4.10;;;;;;;-0.21;78.01;102224.28;5057510;28;20283;-79
2023/02/28 04:32:25;;;;;;;4.13;3.60;;;;;;;-0.44;79.22;102243.56;5058279;28;20211;-79
2023/02/28 04:34:51;;;;;;;4.13;3.40;;;;;;;-0.48;79.40;102227.91;5057604;28;20210;-80
2023/02/28 04:37:17;;;;;;;3.50;3.20;;;;;;;-0.41;79.63;102201.81;5058918;28;20206;-82
2023/02/28 04:39:45;;;;;;;3.90;3.60;;;;;;;-0.50;79.54;102204.72;5057996;28;20244;-80
2023/02/28 04:42:13;;;;;;;3.90;3.50;;;;;;;-0.53;79.47;102193.44;5057949;28;20204;-80
2023/02/28 04:44:39;;;;;;;4.80;3.63;;;;;;;-0.60;79.86;102211.03;5057527;28;20211;-79
2023/02/28 04:47:05;;;;;;;3.70;3.27;;;;;;;-0.61;79.29;102205.84;5058394;28;20206;-80
2023/02/28 04:49:32;;;;;;;3.47;3.27;;;;;;;-0.63;80.16;102212.56;5057674;28;20594;-79
2023/02/28 04:51:58;;;;;;;3.80;3.50;;;;;;;-0.62;79.74;102204.06;5057889;28;20237;-80
2023/02/28 04:54:24;;;;;;;3.73;3.43;;;;;;;-0.62;80.38;102198.94;5057810;28;20202;-80
2023/02/28 04:56:52;;;;;;;4.43;3.50;;;;;;;-0.61;80.69;102198.16;5057483;28;20212;-80
2023/02/28 04:59:18;;;;;;;4.00;3.67;;;;;;;-0.58;81.05;102180.34;5057908;28;20227;-80
2023/02/28 05:01:47;;;;;;;3.77;3.47;;;;;;;-0.47;81.40;102158.75;5057397;28;20216;-81
2023/02/28 05:04:14;;;;;;;3.53;3.23;;;;;;;-0.48;81.67;102145.81;5057707;28;20209;-79
2023/02/28 05:06:40;;;;;;;3.70;3.40;;;;;;;-0.43;81.49;102152.97;5057747;28;20283;-79
2023/02/28 05:09:06;;;;;;;4.70;4.17;;;;;;;-0.43;82.18;102139.28;5057380;28;20229;-80
2023/02/28 05:11:34;;;;;;;5.30;3.80;;;;;;;-0.37;81.58;102134.47;5057351;28;20209;-80
2023/02/28 05:14:03;;;;;;;4.30;4.00;;;;;;;-0.32;81.87;102133.00;5057301;28;20231;-79
2023/02/28 05:16:29;;;;;;;4.77;4.30;;;;;;;-0.29;82.76;102127.19;5057235;28;20238;-80
2023/02/28 05:18:55;;;;;;;4.60;4.10;;;;;;;-0.27;82.64;102115.31;5057513;28;20226;-80
2023/02/28 05:21:26;;;;;;;5.07;4.67;;;;;;;-0.21;82.54;102106.22;5057215;28;20938;-80
2023/02/28 05:23:53;;;;;;;4.60;4.20;;;;;;;-0.16;83.19;102108.16;5057299;28;20207;-80
2023/02/28 05:26:19;;;;;;;5.00;4.60;;;;;;;-0.13;83.03;102096.38;5057485;28;20245;-81
2023/02/28 05:28:45;;;;;;;4.90;4.40;;;;;;;-0.14;82.80;102086.91;5057602;28;20260;-81
2023/02/28 05:31:14;;;;;;;4.67;4.27;;;;;;;-0.11;82.99;102086.19;5057013;28;20683;-82
2023/02/28 05:33:40;;;;;;;5.67;4.63;;;;;;;-0.09;82.75;102090.59;5057400;28;20275;-79
2023/02/28 05:36:07;;;;;;;5.93;5.40;;;;;;;-0.13;82.58;102091.22;5057018;28;20205;-79
2023/02/28 05:38:34;;;;;;;5.30;4.80;;;;;;;-0.06;81.68;102102.69;5056564;28;20213;-80
2023/02/28 05:41:00;;;;;;;5.27;4.73;;;;;;;-0.17;81.89;102125.25;5057092;28;20209;-79
2023/02/28 05:43:26;;;;;;;7.53;5.13;;;;;;;-0.10;81.04;102131.56;5056238;28;20686;-79
2023/02/28 05:45:53;;;;;;;6.53;4.50;;;;;;;-0.42;79.19;102156.41;5056814;28;20204;-80
2023/02/28 05:48:20;;;;;;;4.93;4.50;;;;;;;-0.64;79.34;102196.28;5057126;28;20330;-79
2023/02/28 05:50:47;;;;;;;5.23;4.83;;;;;;;-0.65;79.68;102209.03;5057532;28;20234;-79
2023/02/28 05:53:13;;;;;;;5.00;4.50;;;;;;;-0.62;79.71;102204.94;5056302;28;20202;-81
2023/02/28 05:55:40;;;;;;;5.10;4.70;;;;;;;-0.52;80.05;102210.59;5056677;28;20262;-80
2023/02/28 05:58:07;;;;;;;4.77;4.37;;;;;;;-0.41;80.02;102207.81;5057260;28;20219;-81
2023/02/28 06:00:33;;;;;;;5.33;4.90;;;;;;;-0.39;78.83;102224.97;5056538;28;20228;-79
2023/02/28 06:03:01;;;;;;;5.53;4.70;;;;;;;-0.41;77.92;102245.41;5056734;28;20291;-80
2023/02/28 06:05:29;;;;;;;6.23;5.60;;;;;;;-0.79;78.37;102269.81;5056492;28;20640;-80
2023/02/28 06:07:55;;;;;;;6.97;5.10;;;;;;;-1.17;80.02;102277.81;5055396;28;20263;-81
2023/02/28 06:10:22;;;;;;;6.00;5.50;;;;;;;-1.35;81.77;102240.09;5055312;28;20229;-82
2023/02/28 06:12:48;;;;;;;6.07;5.67;;;;;;;-1.47;82.60;102199.28;5055824;28;20252;-81
2023/02/28 06:15:16;;;;;;;6.07;5.47;;;;;;;-1.41;82.70;102180.81;5056059;28;20205;-82
2023/02/28 06:17:43;;;;;;;5.27;4.77;;;;;;;-1.48;82.81;102165.91;5056042;28;20201;-82
2023/02/28 06:20:12;;;;;;;5.63;4.83;;;;;;;-1.35;82.90;102158.13;5055778;28;20581;-80
2023/02/28 06:22:40;;;;;;;6.47;5.33;;;;;;;-1.26;82.93;102148.41;5056155;28;20579;-81
2023/02/28 06:25:08;;;;;;;7.10;5.60;;;;;;;-1.14;83.10;102149.91;5056675;28;20201;-82
2023/02/28 06:27:34;;;;;;;5.57;5.07;;;;;;;-1.02;83.21;102138.66;5057048;28;20206;-80
2023/02/28 06:30:01;;;;;;;5.60;5.10;;;;;;;-0.98;82.16;102152.53;5049464;28;20769;-82
2023/02/28 06:32:27;;;;;;;7.03;5.27;;;;;;;-0.87;81.71;102156.56;5056577;28;20201;-82
2023/02/28 06:34:54;;;;;;;6.10;5.53;;;;;;;-0.83;81.92;102163.63;5057070;28;20209;-81
2023/02/28 06:37:20;;;;;;;6.13;5.63;;;;;;;-0.74;81.62;102177.75;5056628;28;20205;-80
2023/02/28 06:39:48;;;;;;;6.20;5.60;;;;;;;-0.80;81.83;102188.53;5056414;28;20291;-81
2023/02/28 06:42:14;;;;;;;5.80;5.23;;;;;;;-0.77;82.16;102186.16;5056522;28;20210;-82
2023/02/28 06:44:42;;;;;;;6.37;5.83;;;;;;;-0.78;82.21;102189.50;5056641;28;20232;-82
2023/02/28 06:47:09;;;;;;;6.37;5.80;;;;;;;-0.81;82.61;102187.66;5055619;28;20296;-82
2023/02/28 06:49:36;;;;;;;6.03;5.53;;;;;;;-0.85;82.90;102190.00;5055480;28;20830;-82
2023/02/28 06:52:03;;;;;;;6.20;5.70;;;;;;;-0.84;82.97;102184.06;5056296;28;20210;-81
2023/02/28 06:54:29;;;;;;;6.30;5.70;;;;;;;-0.83;83.10;102183.28;5055787;28;20210;-81
2023/02/28 06:56:58;;;;;;;5.87;5.37;;;;;;;-0.72;83.21;102173.59;5056501;28;20207;-82
2023/02/28 06:59:24;;;;;;;5.33;4.93;;;;;;;-0.73;82.82;102176.94;5056621;28;20225;-80
2023/02/28 07:01:51;;;;;;;6.40;5.90;;;;;;;-0.64;82.33;102196.28;5056500;28;20205;-82
2023/02/28 07:04:18;;;;;;;5.87;5.37;;;;;;;-0.64;81.78;102201.41;5056326;28;20243;-81
2023/02/28 07:06:44;;;;;;;5.87;5.30;;;;;;;-0.52;81.27;102223.41;5055342;28;20285;-81
2023/02/28 07:09:11;;;;;;;5.57;4.93;;;;;;;-0.45;81.46;102234.09;5055642;28;20253;-80
2023/02/28 07:11:37;;;;;;;5.63;5.13;;;;;;;-0.43;80.90;102242.75;5056172;28;20212;-82
2023/02/28 07:14:05;;;;;;;5.07;4.67;;;;;;;-0.39;81.45;102246.38;5052880;28;20207;-80
2023/02/28 07:16:31;;;;;;;5.87;5.17;;;;;;;-0.37;81.21;102249.91;5053078;28;20646;-79
2023/02/28 07:18:57;;;;;;;7.63;6.30;;;;;;;-0.39;80.50;102261.78;5052939;28;20715;-80
2023/02/28 07:21:24;;;;;;;6.57;5.97;;;;;;;-0.29;80.89;102268.28;5052990;28;20212;-80
2023/02/28 07:23:51;;;;;;;5.93;5.33;;;;;;;-0.25;80.40;102283.06;5052431;28;20257;-79
2023/02/28 07:26:19;;;;;;;6.37;5.77;;;;;;;-0.23;80.79;102278.88;5053339;28;20290;-81
2023/02/28 07:28:47;;;;;;;7.10;6.47;;;;;;;-0.20;80.78;102291.88;5053126;28;20271;-81
2023/02/28 07:31:16;;;;;;;7.70;7.10;;;;;;;-0.15;80.65;102290.44;5052694;28;20236;-80
2023/02/28 07:33:43;;;;;;;8.63;7.83;;;;;;;-0.13;81.05;102288.84;5056099;28;20217;-82
2023/02/28 07:36:15;;;;;;;8.30;7.60;;;;;;;-0.12;81.82;102289.72;5056373;28;20266;-82
2023/02/28 07:38:42;;;;;;;8.13;7.33;;;;;;;-0.05;80.24;102273.88;5055666;28;20219;-82
2023/02/28 07:41:08;;;;;;;9.50;7.00;;;;;;;-0.04;79.93;102293.59;5055953;28;20202;-82
2023/02/28 07:43:35;;;;;;;7.93;7.23;;;;;;;-0.08;79.91;102320.81;5056699;28;20210;-82
2023/02/28 07:46:03;;;;;;;7.87;7.17;;;;;;;-0.01;80.71;102316.88;5056298;28;20742;-82
2023/02/28 07:48:31;;;;;;;7.30;6.70;;;;;;;0.06;80.19;102307.81;5056459;28;20202;-81
2023/02/28 07:50:57;;;;;;;7.67;7.00;;;;;;;0.08;79.67;102311.34;5056533;28;20280;-81
2023/02/28 07:53:23;;;;;;;8.13;7.43;;;;;;;0.10;80.01;102331.19;5056694;28;20207;-80
2023/02/28 07:55:50;;;;;;;7.73;6.93;;;;;;;0.08;78.64;102344.72;5056726;28;20255;-81
2023/02/28 07:58:16;;;;;;;9.30;6.73;;;;;;;0.05;79.68;102337.75;5053790;28;20201;-81
2023/02/28 08:00:42;;;;;;;8.70;7.50;;;;;;;0.11;79.32;102342.34;5056861;28;20782;-81
2023/02/28 08:03:11;;;;;;;10.33;7.37;;;;;;;0.14;79.44;102347.63;5055389;28;20198;-81
2023/02/28 08:05:41;;;;;;;8.53;7.53;;;;;;;0.18;79.76;102344.44;5053218;28;20251;-80
2023/02/28 08:08:07;;;;;;;15.17;8.07;;;;;;;0.22;80.24;102338.66;5055085;28;20585;-81
2023/02/28 08:10:33;;;;;;;12.37;10.83;;;;;;;0.26;79.41;102337.13;5054700;28;20275;-81
2023/02/28 08:13:00;;;;;;;10.03;8.63;;;;;;;0.23;78.13;102353.25;5055518;28;20240;-83
2023/02/28 08:15:26;;;;;;;9.33;8.43;;;;;;;0.28;78.50;102358.63;5055924;28;20645;-81
2023/02/28 08:17:53;;;;;;;7.47;6.77;;;;;;;0.31;78.73;102351.13;5056070;28;20195;-80
2023/02/28 08:20:19;;;;;;;7.40;6.70;;;;;;;0.31;77.95;102364.81;5056569;28;20291;-80
2023/02/28 08:22:47;;;;;;;6.63;5.70;;;;;;;0.42;78.05;102374.78;5058744;28;20202;-80
2023/02/28 08:25:14;;;;;;;7.03;6.43;;;;;;;0.44;77.63;102388.59;5059279;28;20249;-81
2023/02/28 08:27:40;;;;;;;6.80;6.03;;;;;;;0.51;77.10;102403.56;5058908;28;20244;-80
2023/02/28 08:30:08;;;;;;;6.93;6.23;;;;;;;0.49;77.38;102413.75;5055979;28;20220;-81
2023/02/28 08:32:35;;;;;;;7.30;6.13;;;;;;;0.51;77.56;102414.72;5055895;28;20197;-80
2023/02/28 08:35:02;;;;;;;7.27;6.60;;;;;;;0.47;77.41;102409.34;5058396;28;20198;-80
2023/02/28 08:37:29;;;;;;;6.97;5.97;;;;;;;0.51;78.38;102408.69;5058149;28;20239;-81
2023/02/28 08:39:57;;;;;;;6.10;5.60;;;;;;;0.59;78.24;102394.56;5057387;28;20225;-81
2023/02/28 08:42:23;;;;;;;6.33;5.73;;;;;;;0.62;77.95;102411.84;5057401;28;20268;-83
2023/02/28 08:44:49;;;;;;;6.07;5.47;;;;;;;0.67;78.26;102405.25;5055821;28;20198;-82
2023/02/28 08:47:16;;;;;;;6.33;5.73;;;;;;;0.71;78.72;102397.78;5056861;28;20194;-81
2023/02/28 08:49:42;;;;;;;6.83;5.70;;;;;;;0.79;78.52;102398.19;5056931;28;20268;-80
2023/02/28 08:52:09;;;;;;;5.83;5.33;;;;;;;0.78;77.54;102411.88;5055753;28;20252;-80
2023/02/28 08:54:36;;;;;;;6.87;5.33;;;;;;;0.76;77.48;102421.19;5056472;28;20197;-80
2023/02/28 08:57:04;;;;;;;6.43;5.87;;;;;;;0.79;77.65;102416.19;5056560;28;20261;-80
2023/02/28 08:59:30;;;;;;;5.77;5.23;;;;;;;0.81;77.63;102416.28;5057303;28;20275;-81
2023/02/28 09:01:57;;;;;;;5.47;5.00;;;;;;;0.84;76.77;102425.03;5055648;28;20200;-80
2023/02/28 09:04:23;;;;;;;5.03;4.53;;;;;;;0.81;75.95;102436.84;5058134;28;20736;-79
2023/02/28 09:06:49;;;;;;;7.03;4.03;;;;;;;0.89;76.25;102449.31;5059259;28;20229;-81
2023/02/28 09:09:16;;;;;;;4.50;4.20;;;;;;;0.99;76.80;102459.28;5055395;28;20271;-80
2023/02/28 09:11:42;;;;;;;4.80;4.40;;;;;;;1.04;76.09;102450.91;5055973;28;20272;-81
2023/02/28 09:14:10;;;;;;;4.30;3.90;;;;;;;1.11;76.79;102458.13;5056578;28;20673;-81
2023/02/28 09:16:36;;;;;;;4.87;4.40;;;;;;;1.10;76.85;102472.69;5057592;28;20635;-80
2023/02/28 09:19:03;;;;;;;5.50;4.50;;;;;;;1.10;77.43;102464.09;5058394;28;20273;-80
2023/02/28 09:21:29;;;;;;;4.53;4.13;;;;;;;1.15;77.13;102458.41;5056321;28;20193;-81
2023/02/28 09:23:56;;;;;;;4.50;4.10;;;;;;;1.23;76.63;102463.03;5056301;28;20197;-80
2023/02/28 09:26:25;;;;;;;4.60;4.20;;;;;;;1.17;76.84;102463.63;5059185;28;20199;-81
2023/02/28 09:28:52;;;;;;;4.53;4.13;;;;;;;1.22;76.67;102461.28;5057927;28;20272;-81
2023/02/28 09:31:21;;;;;;;3.53;3.23;;;;;;;1.22;77.04;102461.28;5054256;28;20292;-82
2023/02/28 09:33:48;;;;;;;4.20;3.87;;;;;;;1.25;76.05;102462.34;5056537;28;20858;-81
2023/02/28 09:36:14;;;;;;;4.10;3.70;;;;;;;1.33;75.79;102476.47;5056827;28;20202;-80
2023/02/28 09:38:42;;;;;;;4.63;4.23;;;;;;;1.38;76.87;102468.97;5056012;28;20265;-81
2023/02/28 09:41:13;;;;;;;4.27;3.87;;;;;;;1.37;76.92;102467.22;5054554;28;20230;-80
2023/02/28 09:43:45;;;;;;;4.20;3.80;;;;;;;1.47;75.72;102460.88;5053379;28;20198;-80
2023/02/28 09:46:22;;;;;;;3.67;3.37;;;;;;;1.48;74.89;102481.50;5057376;28;20240;-81
2023/02/28 09:48:50;;;;;;;5.47;3.70;;;;;;;1.51;74.94;102483.38;5054867;28;20221;-80
2023/02/28 09:51:30;;;;;;;3.77;3.47;;;;;;;1.54;75.87;102501.53;5056527;28;20244;-80
2023/02/28 09:53:56;;;;;;;3.17;2.90;;;;;;;1.51;75.70;102516.81;5057624;28;20195;-81
2023/02/28 09:56:27;;;;;;;8.17;3.37;;;;;;;1.48;75.61;102507.25;5057702;28;20255;-80
2023/02/28 09:58:57;;;;;;;4.00;3.10;;;;;;;1.57;74.62;102515.44;5057668;28;20237;-79
2023/02/28 10:01:31;;;;;;;2.60;2.40;;;;;;;1.55;74.41;102536.78;5056425;28;20207;-79
2023/02/28 10:04:01;;;;;;;3.07;2.77;;;;;;;1.54;73.84;102551.31;5053794;28;20201;-81
2023/02/28 10:06:31;;;;;;;3.67;2.47;;;;;;;1.66;73.03;102552.75;5057827;28;20680;-81
2023/02/28 10:09:02;;;;;;;2.77;2.57;;;;;;;1.67;73.39;102575.13;5059253;28;20222;-79
2023/02/28 10:11:30;;;;;;;2.87;2.67;;;;;;;1.68;73.58;102579.47;5056676;28;20231;-80
2023/02/28 10:14:05;;;;;;;2.77;2.40;;;;;;;1.82;72.44;102582.75;5055626;28;20194;-80
2023/02/28 10:16:37;;;;;;;4.20;2.47;;;;;;;1.90;71.71;102604.63;5057169;28;20205;-79
2023/02/28 10:19:07;;;;;;;3.43;2.27;;;;;;;2.04;78.13;102616.50;5054950;28;20652;-80
2023/02/28 10:21:37;;;;;;;6.33;3.57;;;;;;;2.39;87.92;102344.22;5055849;28;20208;-81
2023/02/28 10:24:12;;;;;;;3.63;3.33;;;;;;;2.37;78.77;102310.66;5056313;28;20579;-80
2023/02/28 10:26:38;;;;;;;3.40;3.10;;;;;;;2.37;73.41;102408.59;5053387;28;20197;-79
2023/02/28 10:29:04;;;;;;;2.90;2.70;;;;;;;2.35;71.93;102489.22;5055553;28;20216;-80
2023/02/28 10:31:32;;;;;;;3.10;2.80;;;;;;;2.39;76.00;102499.75;5055376;28;20228;-80
2023/02/28 10:33:58;;;;;;;4.63;3.30;;;;;;;2.35;72.41;102521.03;5053499;28;20203;-80
2023/02/28 10:36:25;;;;;;;4.13;3.10;;;;;;;2.46;78.57;102494.88;5055530;28;20210;-80
2023/02/28 10:38:51;;;;;;;5.10;3.23;;;;;;;2.59;79.22;102418.19;5055106;28;20230;-80
2023/02/28 10:41:28;;;;;;;3.13;2.73;;;;;;;2.76;79.09;102369.09;5056816;28;20672;-81
2023/02/28 10:44:13;;;;;;;3.27;2.87;;;;;;;2.81;73.62;102449.22;5056808;28;20190;-80
2023/02/28 10:46:43;;;;;;;3.27;3.07;;;;;;;2.90;74.27;102429.03;5057428;28;20198;-80
2023/02/28 10:49:17;;;;;;;3.07;2.77;;;;;;;2.96;75.16;102478.31;5059530;28;20220;-80
2023/02/28 10:51:44;;;;;;;3.77;3.20;;;;;;;2.92;71.33;102522.84;5057920;28;20226;-80
2023/02/28 10:54:17;;;;;;;4.27;3.30;;;;;;;2.91;72.33;102586.41;5056118;28;20236;-80
2023/02/28 10:56:43;;;;;;;4.97;4.13;;;;;;;2.95;72.06;102580.59;5054024;28;20206;-80
2023/02/28 10:59:28;;;;;;;3.33;3.10;;;;;;;3.14;75.03;102558.22;5055428;28;20276;-79
2023/02/28 11:01:56;;;;;;;4.63;3.00;;;;;;;3.15;71.25;102557.41;5054646;28;20916;-81
2023/02/28 11:04:37;;;;;;;3.33;3.03;;;;;;;3.23;70.71;102607.69;5053394;28;20204;-80
2023/02/28 11:07:06;;;;;;;4.90;2.83;;;;;;;3.27;68.69;102643.16;5052181;28;20197;-80
2023/02/28 11:09:35;;;;;;;3.50;3.20;;;;;;;3.32;69.51;102694.97;5054209;28;20219;-80
2023/02/28 11:12:04;;;;;;;3.57;3.10;;;;;;;3.30;67.59;102702.66;5049840;28;20232;-80
2023/02/28 11:14:34;;;;;;;3.53;2.93;;;;;;;3.35;68.07;102737.31;5053253;28;20202;-79
2023/02/28 11:17:14;;;;;;;3.30;3.00;;;;;;;3.44;66.54;102747.19;5051283;28;20203;-79
2023/02/28 11:19:48;;;;;;;4.00;2.37;;;;;;;3.50;65.84;102781.03;5051737;28;20702;-81
2023/02/28 11:22:20;;;;;;;4.93;3.30;;;;;;;3.59;65.32;102816.75;5054703;28;20211;-80
2023/02/28 11:24:50;;;;;;;4.17;3.53;;;;;;;3.85;69.07;102846.41;5054536;28;20202;-79
2023/02/28 11:27:41;;;;;;;4.20;3.40;;;;;;;4.04;66.37;102830.06;5053934;28;20193;-79
2023/02/28 11:30:24;;;;;;;7.07;3.77;;;;;;;4.15;62.51;102836.63;5051925;28;20365;-82
2023/02/28 11:32:52;;;;;;;3.37;2.83;;;;;;;4.17;60.95;102894.44;5055146;28;20200;-79
2023/02/28 11:35:24;;;;;;;2.90;2.43;;;;;;;4.21;59.71;102952.34;5055871;28;20193;-79
2023/02/28 11:37:50;;;;;;;3.23;2.87;;;;;;;4.26;61.89;102993.94;5060396;28;20202;-80